Time,TemperatureF,DewpointF,PressureIn,WindDirection,WindDirectionDegrees,WindSpeedMPH,WindSpeedGustMPH,Humidity,HourlyPrecipIn,Conditions,Clouds,dailyrainin,SolarRadiationWatts/m^2,SoftwareType,DateUTC
2013-02-28 00:21:00,19.0,1.0,-100.00,North,7,5.0,6.0,44,0.00,,,0.00,0.000000,,2013-02-28 07:21:00,
2013-02-28 00:31:00,19.0,1.0,-100.00,North,7,5.0,6.0,44,0.00,,,0.00,0.000000,,2013-02-28 07:31:00,
2013-02-28 00:41:00,19.0,1.0,-100.00,North,7,5.0,6.0,44,0.00,,,0.00,0.000000,,2013-02-28 07:41:00,
2013-02-28 00:51:00,19.0,1.0,-100.00,North,7,5.0,6.0,44,0.00,,,0.00,0.000000,,2013-02-28 07:51:00,
2013-02-28 01:21:00,18.0,1.0,-100.00,North,356,5.0,8.0,47,0.00,,,0.00,0.000000,,2013-02-28 08:21:00,
2013-02-28 01:32:00,18.0,1.0,-100.00,North,356,5.0,8.0,47,0.00,,,0.00,0.000000,,2013-02-28 08:32:00,
2013-02-28 01:42:00,18.0,1.0,-100.00,North,356,5.0,8.0,47,0.00,,,0.00,0.000000,,2013-02-28 08:42:00,
2013-02-28 01:52:00,18.0,1.0,-100.00,North,356,5.0,8.0,47,0.00,,,0.00,0.000000,,2013-02-28 08:52:00,
2013-02-28 02:21:00,17.0,1.0,-100.00,NNE,18,4.0,6.0,48,0.00,,,-99.99,0.000000,,2013-02-28 09:21:00,
2013-02-28 02:32:00,17.0,1.0,-100.00,NNE,18,4.0,6.0,48,0.00,,,-99.99,0.000000,,2013-02-28 09:32:00,
2013-02-28 02:41:00,17.0,1.0,-100.00,NNE,18,4.0,6.0,48,0.00,,,-99.99,0.000000,,2013-02-28 09:41:00,
2013-02-28 02:52:00,17.0,1.0,-100.00,NNE,18,4.0,6.0,48,0.00,,,-99.99,0.000000,,2013-02-28 09:52:00,
2013-02-28 03:21:00,16.0,1.0,-100.00,North,358,3.0,8.0,50,0.00,,,0.00,0.000000,,2013-02-28 10:21:00,
2013-02-28 03:32:00,16.0,1.0,-100.00,North,358,3.0,8.0,50,0.00,,,0.00,0.000000,,2013-02-28 10:32:00,
2013-02-28 03:42:00,16.0,1.0,-100.00,North,358,3.0,8.0,50,0.00,,,0.00,0.000000,,2013-02-28 10:42:00,
2013-02-28 03:51:00,16.0,1.0,-100.00,North,358,3.0,8.0,50,0.00,,,0.00,0.000000,,2013-02-28 10:51:00,
2013-02-28 04:42:00,15.0,1.0,-100.00,NNE,30,3.0,8.0,53,0.00,,,0.00,0.000000,,2013-02-28 11:42:00,
2013-02-28 04:52:00,15.0,1.0,-100.00,NNE,30,3.0,8.0,53,0.00,,,0.00,0.000000,,2013-02-28 11:52:00,
2013-02-28 05:21:00,15.0,0.0,-100.00,NNE,32,2.0,7.0,51,-99.99,,,0.00,0.000000,,2013-02-28 12:21:00,
2013-02-28 05:42:00,15.0,0.0,-100.00,NNE,32,2.0,7.0,51,-99.99,,,0.00,0.000000,,2013-02-28 12:42:00,
2013-02-28 05:52:00,15.0,0.0,-100.00,NNE,32,2.0,7.0,51,-99.99,,,0.00,0.000000,,2013-02-28 12:52:00,
2013-02-28 06:52:00,15.0,-1.0,-100.00,ENE,63,2.0,7.0,49,0.00,,,0.00,0.000000,,2013-02-28 13:52:00,
2013-02-28 07:21:00,14.0,0.0,-100.00,ESE,117,1.0,8.0,53,-99.99,,,0.00,3.000000,,2013-02-28 14:21:00,
2013-02-28 07:32:00,14.0,0.0,-100.00,ESE,117,1.0,8.0,53,-99.99,,,0.00,3.000000,,2013-02-28 14:32:00,
2013-02-28 09:22:00,26.0,2.0,-100.00,SSE,150,3.0,4.0,34,0.00,,,0.00,328.000000,,2013-02-28 16:22:00,
2013-02-28 09:42:00,26.0,2.0,-100.00,SSE,150,3.0,4.0,34,0.00,,,0.00,328.000000,,2013-02-28 16:42:00,
2013-02-28 09:52:00,26.0,2.0,-100.00,SSE,150,3.0,4.0,34,0.00,,,0.00,328.000000,,2013-02-28 16:52:00,
2013-02-28 10:41:00,30.0,2.0,-100.00,SW,227,3.0,6.0,30,0.00,,,0.00,524.000000,,2013-02-28 17:41:00,
2013-02-28 10:52:00,30.0,2.0,-100.00,SW,227,3.0,6.0,30,0.00,,,0.00,524.000000,,2013-02-28 17:52:00,
2013-02-28 11:22:00,34.0,3.0,-100.00,SSW,205,5.0,9.0,26,0.00,,,0.00,679.000000,,2013-02-28 18:22:00,
2013-02-28 11:42:00,34.0,3.0,-100.00,SSW,205,5.0,9.0,26,0.00,,,0.00,679.000000,,2013-02-28 18:42:00,
2013-02-28 11:52:00,34.0,3.0,-100.00,SSW,205,5.0,9.0,26,0.00,,,0.00,679.000000,,2013-02-28 18:52:00,
2013-02-28 12:21:00,36.0,4.0,-100.00,SW,221,6.0,12.0,26,0.00,,,0.00,778.000000,,2013-02-28 19:21:00,
2013-02-28 12:32:00,36.0,4.0,-100.00,SW,221,6.0,12.0,26,0.00,,,0.00,778.000000,,2013-02-28 19:32:00,
2013-02-28 12:41:00,36.0,4.0,-100.00,SW,221,6.0,12.0,26,0.00,,,0.00,778.000000,,2013-02-28 19:41:00,
2013-02-28 12:51:00,36.0,4.0,-100.00,SW,221,6.0,12.0,26,0.00,,,0.00,778.000000,,2013-02-28 19:51:00,
2013-02-28 13:21:00,37.0,5.0,-100.00,SSW,206,8.0,14.0,26,0.00,,,0.00,806.000000,,2013-02-28 20:21:00,
2013-02-28 13:32:00,37.0,5.0,-100.00,SSW,206,8.0,14.0,26,0.00,,,0.00,806.000000,,2013-02-28 20:32:00,
2013-02-28 13:41:00,37.0,5.0,-100.00,SSW,206,8.0,14.0,26,0.00,,,0.00,806.000000,,2013-02-28 20:41:00,
2013-02-28 13:52:00,37.0,5.0,-100.00,SSW,206,8.0,14.0,26,0.00,,,0.00,806.000000,,2013-02-28 20:52:00,
2013-02-28 14:22:00,39.0,2.0,-100.00,West,280,8.0,16.0,21,0.00,,,0.00,768.000000,,2013-02-28 21:22:00,
2013-02-28 14:31:00,39.0,2.0,-100.00,West,280,8.0,16.0,21,0.00,,,0.00,768.000000,,2013-02-28 21:31:00,
2013-02-28 14:41:00,39.0,2.0,-100.00,West,280,8.0,16.0,21,0.00,,,0.00,768.000000,,2013-02-28 21:41:00,
2013-02-28 14:51:00,39.0,2.0,-100.00,West,280,8.0,16.0,21,0.00,,,0.00,768.000000,,2013-02-28 21:51:00,
2013-02-28 15:21:00,40.0,6.0,-100.00,WNW,297,9.0,17.0,24,0.00,,,0.00,657.000000,,2013-02-28 22:21:00,
2013-02-28 15:32:00,40.0,6.0,-100.00,WNW,297,9.0,17.0,24,0.00,,,0.00,657.000000,,2013-02-28 22:32:00,
2013-02-28 15:41:00,40.0,6.0,-100.00,WNW,297,9.0,17.0,24,0.00,,,0.00,657.000000,,2013-02-28 22:41:00,
2013-02-28 15:52:00,40.0,6.0,-100.00,WNW,297,9.0,17.0,24,0.00,,,0.00,657.000000,,2013-02-28 22:52:00,
2013-02-28 16:21:00,42.0,8.0,-100.00,WNW,294,6.0,14.0,24,0.00,,,0.00,518.000000,,2013-02-28 23:21:00,
2013-02-28 16:31:00,42.0,8.0,-100.00,WNW,294,6.0,14.0,24,0.00,,,0.00,518.000000,,2013-02-28 23:31:00,
2013-02-28 16:41:00,42.0,8.0,-100.00,WNW,294,6.0,14.0,24,0.00,,,0.00,518.000000,,2013-02-28 23:41:00,
2013-02-28 16:52:00,42.0,8.0,-100.00,WNW,294,6.0,14.0,24,0.00,,,0.00,518.000000,,2013-02-28 23:52:00,
2013-02-28 17:22:00,40.0,6.0,-100.00,SSW,193,5.0,12.0,24,0.00,,,0.00,304.000000,,2013-03-01 00:22:00,
2013-02-28 17:32:00,40.0,6.0,-100.00,SSW,193,5.0,12.0,24,0.00,,,0.00,304.000000,,2013-03-01 00:32:00,
2013-02-28 17:41:00,40.0,6.0,-100.00,SSW,193,5.0,12.0,24,0.00,,,0.00,304.000000,,2013-03-01 00:41:00,
2013-02-28 17:51:00,40.0,6.0,-100.00,SSW,193,5.0,12.0,24,0.00,,,0.00,304.000000,,2013-03-01 00:51:00,
2013-02-28 18:21:00,37.0,6.0,-100.00,SSW,210,2.0,7.0,27,0.00,,,0.00,84.000000,,2013-03-01 01:21:00,
2013-02-28 18:31:00,37.0,6.0,-100.00,SSW,210,2.0,7.0,27,0.00,,,0.00,84.000000,,2013-03-01 01:31:00,
2013-02-28 18:42:00,37.0,6.0,-100.00,SSW,210,2.0,7.0,27,0.00,,,0.00,84.000000,,2013-03-01 01:42:00,
2013-02-28 18:51:00,37.0,6.0,-100.00,SSW,210,2.0,7.0,27,0.00,,,0.00,84.000000,,2013-03-01 01:51:00,
2013-02-28 19:21:00,31.0,7.0,-100.00,NNE,12,6.0,8.0,35,0.00,,,0.00,2.000000,,2013-03-01 02:21:00,
2013-02-28 19:31:00,31.0,7.0,-100.00,NNE,12,6.0,8.0,35,0.00,,,0.00,2.000000,,2013-03-01 02:31:00,
2013-02-28 19:42:00,31.0,7.0,-100.00,NNE,12,6.0,8.0,35,0.00,,,0.00,2.000000,,2013-03-01 02:42:00,
2013-02-28 19:52:00,31.0,7.0,-100.00,NNE,12,6.0,8.0,35,0.00,,,0.00,2.000000,,2013-03-01 02:52:00,
2013-02-28 20:11:00,30.0,7.0,-100.00,NNE,17,4.0,11.0,37,0.00,,,0.00,0.000000,,2013-03-01 03:11:00,
2013-02-28 20:21:00,30.0,7.0,-100.00,NNE,17,4.0,11.0,37,0.00,,,0.00,0.000000,,2013-03-01 03:21:00,
2013-02-28 20:32:00,30.0,7.0,-100.00,NNE,17,4.0,11.0,37,0.00,,,0.00,0.000000,,2013-03-01 03:32:00,
2013-02-28 20:41:00,30.0,7.0,-100.00,NNE,17,4.0,11.0,37,0.00,,,0.00,0.000000,,2013-03-01 03:41:00,
2013-02-28 20:51:00,30.0,7.0,-100.00,NNE,17,4.0,11.0,37,0.00,,,0.00,0.000000,,2013-03-01 03:51:00,
2013-02-28 21:41:00,27.0,6.0,-100.00,North,356,4.0,7.0,41,0.00,,,0.00,0.000000,,2013-03-01 04:41:00,
2013-02-28 21:51:00,27.0,6.0,-100.00,North,356,4.0,7.0,41,0.00,,,0.00,0.000000,,2013-03-01 04:51:00,
2013-02-28 22:22:00,26.0,7.0,-100.00,NNE,12,5.0,7.0,44,0.00,,,0.00,0.000000,,2013-03-01 05:22:00,
2013-02-28 22:32:00,26.0,7.0,-100.00,NNE,12,5.0,7.0,44,0.00,,,0.00,0.000000,,2013-03-01 05:32:00,
2013-02-28 22:42:00,26.0,7.0,-100.00,NNE,12,5.0,7.0,44,0.00,,,0.00,0.000000,,2013-03-01 05:42:00,
2013-02-28 22:52:00,26.0,7.0,-100.00,NNE,12,5.0,7.0,44,0.00,,,0.00,0.000000,,2013-03-01 05:52:00,
2013-02-28 23:21:00,26.0,7.0,-100.00,North,10,4.0,7.0,44,0.00,,,0.00,0.000000,,2013-03-01 06:21:00,
2013-02-28 23:32:00,26.0,7.0,-100.00,North,10,4.0,7.0,44,0.00,,,0.00,0.000000,,2013-03-01 06:32:00,
2013-02-28 23:42:00,26.0,7.0,-100.00,North,10,4.0,7.0,44,0.00,,,0.00,0.000000,,2013-03-01 06:42:00,
2013-02-28 23:52:00,26.0,7.0,-100.00,North,10,4.0,7.0,44,0.00,,,0.00,0.000000,,2013-03-01 06:52:00,